(°C)
(°C)
NE
NE
ENE
E
E
E
E
(km/h)
7-14
6-12
8-14
9-17
11-20
11-22
12-24
(mm)
0
0
0
0
0
0
0
(%)
13
3
3
3
3
3
3

Sun elevation

/ -24°
sun-icon
UV 2
06:14
20:28
Primul pătrar (81°)
10:22
03:12

METAR for Bordenau (ETNW)

Ora Conditions Temperatură/
Punctul de rouă
Vânt Vizibilitate Vremea Nori Presiune Change Raw
9°C / 9°C 140º 4kt 2900m - 1021 - ETNW 182120Z AUTO 14004KT 2900 // ////// 09/09 Q1021 ///
10°C / 10°C 80º 3kt 5000m - 1021 - ETNW 182020Z AUTO 08003KT 5000 // ////// 10/10 Q1021 ///
10°C / 8°C 110º 4kt 6000m - 1020 - ETNW 181920Z AUTO 11004KT 6000 // ////// 10/08 Q1020 ///
11°C / 8°C 100º 6kt 8000m - 1020 - ETNW 181820Z AUTO 10006KT 8000 // ////// 11/08 Q1020 ///
12°C / 8°C 110º 8kt 7000m - 1020 - ETNW 181720Z AUTO 11008KT 7000 // ////// 12/08 Q1020 ///
13°C / 8°C 110º 9kt 8000m - 1019 - ETNW 181620Z AUTO 11009KT 8000 // ////// 13/08 Q1019 ///
13°C / 9°C 40º 10kt Gust 20kt 8000m - 1019 - ETNW 181520Z AUTO 04010G20KT 8000 // ////// 13/09 Q1019 ///
16°C / 6°C 50º 4kt 8000m - 1019 - ETNW 181420Z AUTO 05004KT 8000 // ////// 16/06 Q1019 ///
15°C / 5°C 40º 7kt 8000m - 1020 - ETNW 181320Z AUTO 04007KT 8000 // ////// 15/05 Q1020 ///
15°C / 6°C 70º 6kt 8000m - 1020 - ETNW 181220Z AUTO 07006KT 8000 // ////// 15/06 Q1020 ///
14°C / 6°C 20º 5kt 7000m - 1020 - ETNW 181120Z AUTO 02005KT 7000 // ////// 14/06 Q1020 ///
12°C / 6°C 40º 5kt 7000m - 1021 - ETNW 181020Z AUTO 04005KT 7000 // ////// 12/06 Q1021 ///
11°C / 5°C 60º 2kt 8000m - 1021 - ETNW 180920Z AUTO 06002KT 8000 // ////// 11/05 Q1021 ///
9°C / 4°C 360º 1kt 7000m - 1021 - ETNW 180820Z AUTO 36001KT 7000 // ////// 09/04 Q1021 ///
8°C / 4°C 30º 2kt 7000m - 1021 - ETNW 180720Z AUTO 03002KT 7000 // ////// 08/04 Q1021 ///
7°C / 3°C 10º 2kt 7000m - 1021 - ETNW 180620Z AUTO 01002KT 7000 // ////// 07/03 Q1021 ///
6°C / 3°C 360º 3kt 7000m - 1021 - ETNW 180520Z AUTO 36003KT 7000 // ////// 06/03 Q1021 ///
6°C / 2°C 310º 2kt 8000m - 1021 - ETNW 180420Z AUTO 31002KT 8000 // ////// 06/02 Q1021 ///
5°C / 2°C 320º 2kt 8000m - 1021 - ETNW 180320Z AUTO 32002KT 8000 // ////// 05/02 Q1021 ///
5°C / 2°C 310º 4kt 8000m - 1021 - ETNW 180220Z AUTO 31004KT 8000 // ////// 05/02 Q1021 ///
5°C / 2°C 280º 4kt 8000m - 1021 - ETNW 180120Z AUTO 28004KT 8000 // ////// 05/02 Q1021 ///
6°C / 2°C 360º 2kt 8000m - 1021 - ETNW 180020Z AUTO 36002KT 8000 // ////// 06/02 Q1021 ///
7°C / 3°C 20º 4kt 8000m - 1022 - ETNW 172320Z AUTO 02004KT 8000 // ////// 07/03 Q1022 ///
8°C / 3°C 10º 4kt 8000m - 1022 - ETNW 172220Z AUTO 01004KT 8000 // ////// 08/03 Q1022 ///

9°C / 9°C

[Mai mult]
Vânt 140º 4kt
Vizibilitate 2900m
Vremea -
Nori
Presiune 1021
Change -
Raw ETNW 182120Z AUTO 14004KT 2900 // ////// 09/09 Q1021 ///

10°C / 10°C

[Mai mult]
Vânt 80º 3kt
Vizibilitate 5000m
Vremea -
Nori
Presiune 1021
Change -
Raw ETNW 182020Z AUTO 08003KT 5000 // ////// 10/10 Q1021 ///

10°C / 8°C

[Mai mult]
Vânt 110º 4kt
Vizibilitate 6000m
Vremea -
Nori
Presiune 1020
Change -
Raw ETNW 181920Z AUTO 11004KT 6000 // ////// 10/08 Q1020 ///

11°C / 8°C

[Mai mult]
Vânt 100º 6kt
Vizibilitate 8000m
Vremea -
Nori
Presiune 1020
Change -
Raw ETNW 181820Z AUTO 10006KT 8000 // ////// 11/08 Q1020 ///

12°C / 8°C

[Mai mult]
Vânt 110º 8kt
Vizibilitate 7000m
Vremea -
Nori
Presiune 1020
Change -
Raw ETNW 181720Z AUTO 11008KT 7000 // ////// 12/08 Q1020 ///

13°C / 8°C

[Mai mult]
Vânt 110º 9kt
Vizibilitate 8000m
Vremea -
Nori
Presiune 1019
Change -
Raw ETNW 181620Z AUTO 11009KT 8000 // ////// 13/08 Q1019 ///

13°C / 9°C

[Mai mult]
Vânt 40º 10kt Gust 20kt
Vizibilitate 8000m
Vremea -
Nori
Presiune 1019
Change -
Raw ETNW 181520Z AUTO 04010G20KT 8000 // ////// 13/09 Q1019 ///

16°C / 6°C

[Mai mult]
Vânt 50º 4kt
Vizibilitate 8000m
Vremea -
Nori
Presiune 1019
Change -
Raw ETNW 181420Z AUTO 05004KT 8000 // ////// 16/06 Q1019 ///

15°C / 5°C

[Mai mult]
Vânt 40º 7kt
Vizibilitate 8000m
Vremea -
Nori
Presiune 1020
Change -
Raw ETNW 181320Z AUTO 04007KT 8000 // ////// 15/05 Q1020 ///

15°C / 6°C

[Mai mult]
Vânt 70º 6kt
Vizibilitate 8000m
Vremea -
Nori
Presiune 1020
Change -
Raw ETNW 181220Z AUTO 07006KT 8000 // ////// 15/06 Q1020 ///

14°C / 6°C

[Mai mult]
Vânt 20º 5kt
Vizibilitate 7000m
Vremea -
Nori
Presiune 1020
Change -
Raw ETNW 181120Z AUTO 02005KT 7000 // ////// 14/06 Q1020 ///

12°C / 6°C

[Mai mult]
Vânt 40º 5kt
Vizibilitate 7000m
Vremea -
Nori
Presiune 1021
Change -
Raw ETNW 181020Z AUTO 04005KT 7000 // ////// 12/06 Q1021 ///

11°C / 5°C

[Mai mult]
Vânt 60º 2kt
Vizibilitate 8000m
Vremea -
Nori
Presiune 1021
Change -
Raw ETNW 180920Z AUTO 06002KT 8000 // ////// 11/05 Q1021 ///

9°C / 4°C

[Mai mult]
Vânt 360º 1kt
Vizibilitate 7000m
Vremea -
Nori
Presiune 1021
Change -
Raw ETNW 180820Z AUTO 36001KT 7000 // ////// 09/04 Q1021 ///

8°C / 4°C

[Mai mult]
Vânt 30º 2kt
Vizibilitate 7000m
Vremea -
Nori
Presiune 1021
Change -
Raw ETNW 180720Z AUTO 03002KT 7000 // ////// 08/04 Q1021 ///

7°C / 3°C

[Mai mult]
Vânt 10º 2kt
Vizibilitate 7000m
Vremea -
Nori
Presiune 1021
Change -
Raw ETNW 180620Z AUTO 01002KT 7000 // ////// 07/03 Q1021 ///

6°C / 3°C

[Mai mult]
Vânt 360º 3kt
Vizibilitate 7000m
Vremea -
Nori
Presiune 1021
Change -
Raw ETNW 180520Z AUTO 36003KT 7000 // ////// 06/03 Q1021 ///

6°C / 2°C

[Mai mult]
Vânt 310º 2kt
Vizibilitate 8000m
Vremea -
Nori
Presiune 1021
Change -
Raw ETNW 180420Z AUTO 31002KT 8000 // ////// 06/02 Q1021 ///

5°C / 2°C

[Mai mult]
Vânt 320º 2kt
Vizibilitate 8000m
Vremea -
Nori
Presiune 1021
Change -
Raw ETNW 180320Z AUTO 32002KT 8000 // ////// 05/02 Q1021 ///

5°C / 2°C

[Mai mult]
Vânt 310º 4kt
Vizibilitate 8000m
Vremea -
Nori
Presiune 1021
Change -
Raw ETNW 180220Z AUTO 31004KT 8000 // ////// 05/02 Q1021 ///

5°C / 2°C

[Mai mult]
Vânt 280º 4kt
Vizibilitate 8000m
Vremea -
Nori
Presiune 1021
Change -
Raw ETNW 180120Z AUTO 28004KT 8000 // ////// 05/02 Q1021 ///

6°C / 2°C

[Mai mult]
Vânt 360º 2kt
Vizibilitate 8000m
Vremea -
Nori
Presiune 1021
Change -
Raw ETNW 180020Z AUTO 36002KT 8000 // ////// 06/02 Q1021 ///

7°C / 3°C

[Mai mult]
Vânt 20º 4kt
Vizibilitate 8000m
Vremea -
Nori
Presiune 1022
Change -
Raw ETNW 172320Z AUTO 02004KT 8000 // ////// 07/03 Q1022 ///

8°C / 3°C

[Mai mult]
Vânt 10º 4kt
Vizibilitate 8000m
Vremea -
Nori
Presiune 1022
Change -
Raw ETNW 172220Z AUTO 01004KT 8000 // ////// 08/03 Q1022 ///

TAF for Bordenau (ETNW)

From till


From till Wind 10º 10kt. Visibility 10km or more. Broken Clouds 8000ft. Broken Clouds 24000ft.

Raw: TAF ETNW 161659Z 1617/1717 01010KT 9999 NSW BKN080 BKN240 BY ETGL

Current satellite and rain images for Bordenau, Germania

  • Precipitații:
  • <1 mm
  • 1-2 mm
  • 2-5 mm
  • >5 mm

Markerul cu locaţia este poziţionat pe Bordenau. [Mai mult]

The real-time satellite image combines visible light during daytime with infrared radiation during nighttime. At night, the image is not dark as infrared radiation can detect temperature differences. Unfortunately, low clouds and fog are difficult to distinguish from ground temperatures and thus can be almost invisible during the night. Meteosat satellite images for Europe are updated in real-time every 5 minutes. GOES-16/GOES-17 (North & South America) and Himawari (Asia) images update every 10 minutes.

Cantitatea de precipitaţii este estimată cu ajutorul radarelor şi a sateliţilor. Estimările satelitare privind cantitatea de precipitaţii sunt mai puţin exacte noaptea decât în timpul zilei. Crucile portocalii marchează locurile unde fulger a fost detectat (over Europa).

Toate drepturile rezervate 2021 EUMETSAT / meteoblue. Datele despre fulgere furnizate de către nowcast.

Radar pentru Bordenau

Markerul de locație este plasat în Bordenau. Această animație arată radarul de precipitații pentru ultima oră, precum și o 2h prognoză. Bruma și fulguiala pot fi invizibile pe radar. Intensitatea precipitațiilor este reprezentată prin culori, de la albastru deschis la violet închis.
Copyright 2021 Deutscher Wetterdienst / meteoblue.

Situația meteo actuală și avertismente

EUMETNET – MeteoAlarm

pictomap

Sursa: DWD

Este posibil să existe o întârziere între acest site și site-ul www.meteoalarm.eu, pentru cele mai recente informații referitoare la alertele publicate de serviciile meteorologice naționale te rugăm să consulți www.meteoalarm.eu.